nws-alerts: Checking more than four warning/county codes can delay the loading of your pages. You should use a cron job to get the data.
EllijayWeather Station Historical Data
Daily Summary for May 8, 2019 Units:  Metric    English   Both
Daily Weekly Monthly Yearly Custom
  High: Low: Average:
Temperature: 25.6 °C 14.7 °C 20.6 °C
Dew Point: 19 °C 14 °C 16.9 °C
Humidity: 99% 60% 81%
Wind Speed: 7.9km/h 0km/h 0.5km/h
Wind Gust: 14.5km/h - -
Wind- - ESE
Pressure: 1020.5 hPa 1015.8 hPa -
Precipitation: 0 mm    
Historical Graphs
 
 
Tabular Data for May 8, 2019
Time Temperature Dew Point Pressure Wind Wind Speed Wind Gust Humidity Rainfall Rate (Hourly) solar
00:04 16.9 °C 15.8 °C 1020.5 hPa Calm     93% 0 mm meteobridge W/m2
00:09 16.9 °C 15.8 °C 1020.5 hPa Calm     93% 0 mm meteobridge W/m2
00:14 16.8 °C 15.7 °C 1020.5 hPa Calm     93% 0 mm meteobridge W/m2
00:19 16.8 °C 15.7 °C 1020.5 hPa Calm     93% 0 mm meteobridge W/m2
00:24 16.8 °C 15.7 °C 1020.5 hPa Calm     93% 0 mm meteobridge W/m2
00:29 16.8 °C 15.8 °C 1020.5 hPa Calm     94% 0 mm meteobridge W/m2
00:34 16.7 °C 15.7 °C 1020.5 hPa Calm     94% 0 mm meteobridge W/m2
00:39 16.7 °C 15.7 °C 1020.5 hPa Calm     94% 0 mm meteobridge W/m2
00:44 16.7 °C 15.7 °C 1020.5 hPa Calm     94% 0 mm meteobridge W/m2
00:49 16.7 °C 15.7 °C 1020.2 hPa Calm     94% 0 mm meteobridge W/m2
00:54 16.6 °C 15.6 °C 1020.2 hPa Calm     94% 0 mm meteobridge W/m2
00:59 16.6 °C 15.6 °C 1020.2 hPa Calm     94% 0 mm meteobridge W/m2
01:04 16.6 °C 15.6 °C 1020.2 hPa Calm     94% 0 mm meteobridge W/m2
01:09 16.6 °C 15.6 °C 1020.2 hPa Calm     94% 0 mm meteobridge W/m2
01:14 16.5 °C 15.5 °C 1020.2 hPa Calm     94% 0 mm meteobridge W/m2
01:19 16.5 °C 15.5 °C 1020.2 hPa Calm     94% 0 mm meteobridge W/m2
01:24 16.4 °C 15.4 °C 1020.2 hPa Calm     94% 0 mm meteobridge W/m2
01:29 16.4 °C 15.6 °C 1020.2 hPa Calm     95% 0 mm meteobridge W/m2
01:34 16.4 °C 15.6 °C 1020.2 hPa Calm     95% 0 mm meteobridge W/m2
01:39 16.4 °C 15.6 °C 1020.2 hPa Calm     95% 0 mm meteobridge W/m2
01:44 16.4 °C 15.6 °C 1019.9 hPa Calm     95% 0 mm meteobridge W/m2
01:49 16.3 °C 15.5 °C 1019.9 hPa Calm     95% 0 mm meteobridge W/m2
01:54 16.3 °C 15.5 °C 1019.9 hPa Calm     95% 0 mm meteobridge W/m2
01:59 16.3 °C 15.5 °C 1019.5 hPa Calm     95% 0 mm meteobridge W/m2
02:04 16.2 °C 15.4 °C 1019.5 hPa Calm     95% 0 mm meteobridge W/m2
02:09 16.2 °C 15.4 °C 1019.5 hPa Calm     95% 0 mm meteobridge W/m2
02:14 16.2 °C 15.4 °C 1019.5 hPa Calm     95% 0 mm meteobridge W/m2
02:19 16.2 °C 15.4 °C 1019.5 hPa Calm     95% 0 mm meteobridge W/m2
02:24 16.2 °C 15.4 °C 1019.5 hPa Calm     95% 0 mm meteobridge W/m2
02:29 16.1 °C 15.3 °C 1019.5 hPa Calm     95% 0 mm meteobridge W/m2
02:34 16.1 °C 15.3 °C 1019.5 hPa Calm     95% 0 mm meteobridge W/m2
02:39 16.1 °C 15.5 °C 1019.5 hPa Calm     96% 0 mm meteobridge W/m2
02:44 16.1 °C 15.5 °C 1019.5 hPa Calm     96% 0 mm meteobridge W/m2
02:49 16.1 °C 15.5 °C 1019.2 hPa Calm     96% 0 mm meteobridge W/m2
02:54 16.1 °C 15.5 °C 1019.2 hPa Calm     96% 0 mm meteobridge W/m2
02:59 16.1 °C 15.5 °C 1019.2 hPa Calm     96% 0 mm meteobridge W/m2
03:04 16.1 °C 15.5 °C 1019.2 hPa Calm     96% 0 mm meteobridge W/m2
03:09 16.1 °C 15.5 °C 1019.2 hPa Calm     96% 0 mm meteobridge W/m2
03:14 16.1 °C 15.5 °C 1018.8 hPa Calm     96% 0 mm meteobridge W/m2
03:19 16.1 °C 15.5 °C 1018.8 hPa Calm     96% 0 mm meteobridge W/m2
03:24 16 °C 15.4 °C 1018.8 hPa Calm     96% 0 mm meteobridge W/m2
03:29 15.9 °C 15.1 °C 1018.8 hPa Calm     95% 0 mm meteobridge W/m2
03:34 15.8 °C 15 °C 1018.8 hPa Calm     95% 0 mm meteobridge W/m2
03:39 15.8 °C 15 °C 1018.8 hPa Calm     95% 0 mm meteobridge W/m2
03:44 15.8 °C 15 °C 1018.5 hPa Calm     95% 0 mm meteobridge W/m2
03:49 15.6 °C 14.6 °C 1018.5 hPa Calm     94% 0 mm meteobridge W/m2
03:54 15.6 °C 14.8 °C 1018.5 hPa Calm     95% 0 mm meteobridge W/m2
03:59 15.4 °C 14.6 °C 1018.5 hPa Calm     95% 0 mm meteobridge W/m2
04:04 15.5 °C 14.9 °C 1018.5 hPa Calm     96% 0 mm meteobridge W/m2
04:09 15.5 °C 14.9 °C 1018.5 hPa Calm     96% 0 mm meteobridge W/m2
04:14 15.6 °C 15 °C 1018.5 hPa Calm     96% 0 mm meteobridge W/m2
04:19 15.6 °C 15 °C 1018.5 hPa Calm     96% 0 mm meteobridge W/m2
04:24 15.5 °C 14.9 °C 1018.8 hPa Calm     96% 0 mm meteobridge W/m2
04:29 15.5 °C 14.9 °C 1018.8 hPa Calm     96% 0 mm meteobridge W/m2
04:34 15.4 °C 14.8 °C 1018.8 hPa Calm     96% 0 mm meteobridge W/m2
04:39 15.5 °C 14.9 °C 1018.8 hPa Calm     96% 0 mm meteobridge W/m2
04:44 15.5 °C 15 °C 1018.8 hPa Calm     97% 0 mm meteobridge W/m2
04:49 15.4 °C 14.9 °C 1018.8 hPa Calm     97% 0 mm meteobridge W/m2
04:54 15.4 °C 14.8 °C 1018.8 hPa Calm     96% 0 mm meteobridge W/m2
04:59 15.5 °C 15 °C 1018.8 hPa Calm     97% 0 mm meteobridge W/m2
05:04 15.4 °C 14.9 °C 1018.8 hPa Calm     97% 0 mm meteobridge W/m2
05:09 15.5 °C 15 °C 1018.8 hPa Calm     97% 0 mm meteobridge W/m2
05:14 15.4 °C 14.9 °C 1018.8 hPa Calm     97% 0 mm meteobridge W/m2
05:19 15.4 °C 14.9 °C 1018.8 hPa Calm     97% 0 mm meteobridge W/m2
05:24 15.4 °C 14.9 °C 1018.8 hPa Calm     97% 0 mm meteobridge W/m2
05:29 15.4 °C 14.9 °C 1018.8 hPa Calm     97% 0 mm meteobridge W/m2
05:34 15.4 °C 14.9 °C 1018.8 hPa Calm     97% 0 mm meteobridge W/m2
05:39 15.4 °C 14.9 °C 1018.8 hPa Calm     97% 0 mm meteobridge W/m2
05:44 15.4 °C 14.9 °C 1018.8 hPa Calm     97% 0 mm meteobridge W/m2
05:49 15.4 °C 14.9 °C 1018.8 hPa Calm     97% 0 mm meteobridge W/m2
05:54 15.4 °C 14.9 °C 1018.8 hPa Calm     97% 0 mm meteobridge W/m2
05:59 15.4 °C 14.9 °C 1018.8 hPa Calm     97% 0 mm meteobridge W/m2
06:04 15.3 °C 14.7 °C 1019.2 hPa Calm     96% 0 mm meteobridge W/m2
06:09 15.3 °C 14.7 °C 1019.2 hPa Calm     96% 0 mm meteobridge W/m2
06:14 15.3 °C 14.8 °C 1019.2 hPa Calm     97% 0 mm meteobridge W/m2
06:19 15.2 °C 14.6 °C 1018.8 hPa Calm     96% 0 mm meteobridge W/m2
06:24 15.1 °C 14.5 °C 1018.8 hPa Calm     96% 0 mm meteobridge W/m2
06:29 15 °C 14.4 °C 1019.2 hPa Calm     96% 0 mm meteobridge W/m2
06:34 15 °C 14.4 °C 1019.2 hPa Calm     96% 0 mm meteobridge W/m2
06:39 14.9 °C 14.3 °C 1019.5 hPa Calm     96% 0 mm meteobridge W/m2
06:44 14.9 °C 14.3 °C 1019.5 hPa Calm     96% 0 mm meteobridge W/m2
06:49 14.9 °C 14.3 °C 1019.5 hPa Calm     96% 0 mm meteobridge W/m2
06:54 14.8 °C 14.2 °C 1019.5 hPa Calm     96% 0 mm meteobridge W/m2
06:59 14.8 °C 14 °C 1019.9 hPa Calm     95% 0 mm meteobridge W/m2
07:04 14.7 °C 14.2 °C 1020.2 hPa Calm     97% 0 mm meteobridge W/m2
07:09 14.8 °C 14.3 °C 1020.2 hPa Calm     97% 0 mm meteobridge W/m2
07:14 14.8 °C 14.3 °C 1020.2 hPa Calm     97% 0 mm meteobridge W/m2
07:19 14.9 °C 14.3 °C 1020.2 hPa Calm     96% 0 mm meteobridge W/m2
07:24 14.8 °C 14.2 °C 1020.2 hPa Calm     96% 0 mm meteobridge W/m2
07:29 14.8 °C 14.2 °C 1020.2 hPa Calm     96% 0 mm meteobridge W/m2
07:34 14.8 °C 14.2 °C 1020.2 hPa Calm     96% 0 mm meteobridge W/m2
07:39 14.8 °C 14.2 °C 1020.2 hPa Calm     96% 0 mm meteobridge W/m2
07:44 14.8 °C 14.2 °C 1020.2 hPa Calm     96% 0 mm meteobridge W/m2
07:49 14.9 °C 14.4 °C 1020.2 hPa Calm     97% 0 mm meteobridge W/m2
07:54 15.1 °C 14.6 °C 1020.5 hPa Calm     97% 0 mm meteobridge W/m2
07:59 15.2 °C 14.7 °C 1020.5 hPa Calm     97% 0 mm meteobridge W/m2
08:04 15.3 °C 14.8 °C 1020.2 hPa Calm     97% 0 mm meteobridge W/m2
08:09 15.6 °C 15.3 °C 1020.2 hPa Calm     98% 0 mm meteobridge W/m2
08:14 15.8 °C 15.5 °C 1020.2 hPa Calm     98% 0 mm meteobridge W/m2
08:19 16.4 °C 16.2 °C 1020.2 hPa Calm     99% 0 mm meteobridge W/m2
08:24 17.1 °C 16.9 °C 1020.2 hPa Calm     99% 0 mm meteobridge W/m2
08:29 17.2 °C 17 °C 1020.2 hPa Calm     99% 0 mm meteobridge W/m2
08:34 17.3 °C 16.8 °C 1020.2 hPa Calm     97% 0 mm meteobridge W/m2
08:39 17.5 °C 17 °C 1020.2 hPa WNW 3.2 km/h 3.2 km/h 97% 0 mm meteobridge W/m2
08:44 17.9 °C 17.3 °C 1020.2 hPa Calm     96% 0 mm meteobridge W/m2
08:49 18.4 °C 17.6 °C 1020.2 hPa Calm     95% 0 mm meteobridge W/m2
08:54 18.7 °C 17.7 °C 1019.9 hPa Calm     94% 0 mm meteobridge W/m2
08:59 19.2 °C 18 °C 1020.2 hPa Calm     93% 0 mm meteobridge W/m2
09:04 19.6 °C 17.9 °C 1020.2 hPa Calm   1.6 km/h 90% 0 mm meteobridge W/m2
09:09 19.9 °C 18 °C 1020.2 hPa ENE 1.4 km/h 3.2 km/h 89% 0 mm meteobridge W/m2
09:14 20.2 °C 18.1 °C 1020.2 hPa Calm   1.6 km/h 88% 0 mm meteobridge W/m2
09:19 20.3 °C 18.1 °C 1020.2 hPa Calm   8 km/h 87% 0 mm meteobridge W/m2
09:24 20.5 °C 18.1 °C 1020.2 hPa SE 1.4 km/h 1.6 km/h 86% 0 mm meteobridge W/m2
09:29 20.6 °C 18.2 °C 1020.2 hPa Calm   1.6 km/h 86% 0 mm meteobridge W/m2
09:34 20.7 °C 18.3 °C 1020.2 hPa Calm   1.6 km/h 86% 0 mm meteobridge W/m2
09:39 20.8 °C 18.2 °C 1020.2 hPa Calm   1.6 km/h 85% 0 mm meteobridge W/m2
09:44 20.9 °C 18.5 °C 1020.2 hPa ESE 1.4 km/h 1.6 km/h 86% 0 mm meteobridge W/m2
09:49 20.9 °C 18.1 °C 1020.2 hPa Calm   1.6 km/h 84% 0 mm meteobridge W/m2
09:54 20.9 °C 18.1 °C 1019.9 hPa Calm     84% 0 mm meteobridge W/m2
09:59 21.1 °C 18.3 °C 1019.9 hPa Calm   1.6 km/h 84% 0 mm meteobridge W/m2
10:04 21.2 °C 18.4 °C 1019.9 hPa Calm     84% 0 mm meteobridge W/m2
10:09 21.3 °C 18.3 °C 1019.5 hPa Calm     83% 0 mm meteobridge W/m2
10:14 21.5 °C 18.3 °C 1019.5 hPa Calm   8 km/h 82% 0 mm meteobridge W/m2
10:19 21.5 °C 18.3 °C 1019.9 hPa Calm   8 km/h 82% 0 mm meteobridge W/m2
10:24 21.6 °C 18.2 °C 1019.9 hPa Calm   1.6 km/h 81% 0 mm meteobridge W/m2
10:29 21.7 °C 18.3 °C 1019.9 hPa SE 1.4 km/h 3.2 km/h 81% 0 mm meteobridge W/m2
10:34 21.8 °C 18.4 °C 1019.9 hPa ESE 1.4 km/h 6.4 km/h 81% 0 mm meteobridge W/m2
10:39 21.8 °C 18.2 °C 1019.9 hPa Calm   8 km/h 80% 0 mm meteobridge W/m2
10:44 21.9 °C 18.3 °C 1019.9 hPa Calm   1.6 km/h 80% 0 mm meteobridge W/m2
10:49 22.1 °C 18.3 °C 1019.9 hPa ESE 1.4 km/h 8 km/h 79% 0 mm meteobridge W/m2
10:54 22.3 °C 18.7 °C 1019.9 hPa ESE 1.4 km/h 6.4 km/h 80% 0 mm meteobridge W/m2
10:59 22.3 °C 18.5 °C 1019.9 hPa Calm   3.2 km/h 79% 0 mm meteobridge W/m2
11:04 22.3 °C 18.7 °C 1019.9 hPa Calm   3.2 km/h 80% 0 mm meteobridge W/m2
11:09 22.4 °C 18.6 °C 1019.5 hPa Calm   3.2 km/h 79% 0 mm meteobridge W/m2
11:14 22.8 °C 18.8 °C 1019.9 hPa Calm   8 km/h 78% 0 mm meteobridge W/m2
11:19 22.9 °C 18.4 °C 1019.9 hPa Calm   3.2 km/h 76% 0 mm meteobridge W/m2
11:24 23.1 °C 18.8 °C 1019.9 hPa Calm   8 km/h 77% 0 mm meteobridge W/m2
11:29 23.2 °C 18.5 °C 1019.9 hPa Calm   1.6 km/h 75% 0 mm meteobridge W/m2
11:34 23.3 °C 19 °C 1019.9 hPa Calm     77% 0 mm meteobridge W/m2
11:39 23.6 °C 18.9 °C 1019.9 hPa Calm   8 km/h 75% 0 mm meteobridge W/m2
11:44 23.6 °C 18.7 °C 1019.9 hPa Calm   1.6 km/h 74% 0 mm meteobridge W/m2
11:49 23.8 °C 18.9 °C 1019.9 hPa Calm   8 km/h 74% 0 mm meteobridge W/m2
11:54 23.7 °C 18.6 °C 1019.9 hPa ESE 1.4 km/h 6.4 km/h 73% 0 mm meteobridge W/m2
11:59 23.6 °C 18.5 °C 1019.9 hPa ESE 3.2 km/h 6.4 km/h 73% 0 mm meteobridge W/m2
12:04 23.5 °C 18.4 °C 1019.9 hPa East 3.2 km/h 6.4 km/h 73% 0 mm meteobridge W/m2
12:09 23.6 °C 18.7 °C 1019.5 hPa East 1.4 km/h 3.2 km/h 74% 0 mm meteobridge W/m2
12:14 23.7 °C 18.8 °C 1019.5 hPa Calm   6.4 km/h 74% 0 mm meteobridge W/m2
12:19 23.9 °C 18.5 °C 1019.5 hPa SE 1.4 km/h 8 km/h 72% 0 mm meteobridge W/m2
12:24 23.8 °C 18.4 °C 1019.5 hPa East 3.2 km/h 6.4 km/h 72% 0 mm meteobridge W/m2
12:29 23.9 °C 18.8 °C 1019.5 hPa Calm     73% 0 mm meteobridge W/m2
12:34 24.2 °C 18.8 °C 1019.5 hPa Calm   8 km/h 72% 0 mm meteobridge W/m2
12:39 24.3 °C 18.2 °C 1019.5 hPa East 6.4 km/h 6.4 km/h 69% 0 mm meteobridge W/m2
12:44 24.3 °C 18 °C 1019.5 hPa SE 3.2 km/h 9.7 km/h 68% 0 mm meteobridge W/m2
12:49 24.3 °C 18.5 °C 1019.5 hPa Calm   3.2 km/h 70% 0 mm meteobridge W/m2
12:54 24.3 °C 18.2 °C 1019.2 hPa Calm   1.6 km/h 69% 0 mm meteobridge W/m2
12:59 24.4 °C 18.6 °C 1019.2 hPa ESE 1.4 km/h 8 km/h 70% 0 mm meteobridge W/m2
13:04 24.4 °C 18.1 °C 1019.2 hPa SE 3.2 km/h 9.7 km/h 68% 0 mm meteobridge W/m2
13:09 24.3 °C 18.2 °C 1018.8 hPa Calm   6.4 km/h 69% 0 mm meteobridge W/m2
13:14 24.3 °C 17.8 °C 1018.8 hPa Calm   9.7 km/h 67% 0 mm meteobridge W/m2
13:19 24.4 °C 18.1 °C 1018.8 hPa Calm   1.6 km/h 68% 0 mm meteobridge W/m2
13:24 24.5 °C 18.4 °C 1018.8 hPa SE 7.9 km/h 8 km/h 69% 0 mm meteobridge W/m2
13:29 24.3 °C 18 °C 1018.8 hPa Calm   6.4 km/h 68% 0 mm meteobridge W/m2
13:34 24.5 °C 18 °C 1018.8 hPa Calm   6.4 km/h 67% 0 mm meteobridge W/m2
13:39 24.6 °C 17.8 °C 1018.5 hPa SE 1.4 km/h 6.4 km/h 66% 0 mm meteobridge W/m2
13:44 24.6 °C 18.1 °C 1018.5 hPa Calm   3.2 km/h 67% 0 mm meteobridge W/m2
13:49 24.6 °C 18.1 °C 1018.2 hPa ESE 3.2 km/h 3.2 km/h 67% 0 mm meteobridge W/m2
13:54 24.7 °C 18.4 °C 1018.2 hPa Calm   8 km/h 68% 0 mm meteobridge W/m2
13:59 24.8 °C 18.3 °C 1018.2 hPa Calm   8 km/h 67% 0 mm meteobridge W/m2
14:04 24.9 °C 18.3 °C 1018.2 hPa Calm   6.4 km/h 67% 0 mm meteobridge W/m2
14:09 25 °C 18 °C 1018.2 hPa SE 3.2 km/h 9.7 km/h 65% 0 mm meteobridge W/m2
14:14 24.9 °C 17.9 °C 1017.8 hPa Calm   6.4 km/h 65% 0 mm meteobridge W/m2
14:19 24.9 °C 18.6 °C 1017.8 hPa SE 6.4 km/h 6.4 km/h 68% 0 mm meteobridge W/m2
14:24 25.2 °C 18.2 °C 1017.8 hPa Calm   3.2 km/h 65% 0 mm meteobridge W/m2
14:29 25.2 °C 18.4 °C 1017.5 hPa East 7.9 km/h 14.5 km/h 66% 0 mm meteobridge W/m2
14:34 24.9 °C 18.6 °C 1017.5 hPa Calm   1.6 km/h 68% 0 mm meteobridge W/m2
14:39 25.1 °C 17.8 °C 1017.5 hPa ESE 3.2 km/h 6.4 km/h 64% 0 mm meteobridge W/m2
14:44 25.1 °C 18.1 °C 1017.5 hPa Calm   6.4 km/h 65% 0 mm meteobridge W/m2
14:49 24.9 °C 17.4 °C 1017.5 hPa East 1.4 km/h 3.2 km/h 63% 0 mm meteobridge W/m2
14:54 24.9 °C 17.4 °C 1017.5 hPa ESE 3.2 km/h 3.2 km/h 63% 0 mm meteobridge W/m2
14:59 25 °C 17.5 °C 1017.5 hPa ESE 3.2 km/h 6.4 km/h 63% 0 mm meteobridge W/m2
15:04 25.2 °C 17.4 °C 1017.5 hPa Calm   3.2 km/h 62% 0 mm meteobridge W/m2
15:09 25.3 °C 18 °C 1017.5 hPa ESE 7.9 km/h 8 km/h 64% 0 mm meteobridge W/m2
15:14 25.2 °C 17.4 °C 1017.5 hPa Calm     62% 0 mm meteobridge W/m2
15:19 25.2 °C 17.7 °C 1017.5 hPa Calm   8 km/h 63% 0 mm meteobridge W/m2
15:24 25.1 °C 17.6 °C 1017.5 hPa Calm   6.4 km/h 63% 0 mm meteobridge W/m2
15:29 24.9 °C 17.9 °C 1017.2 hPa Calm     65% 0 mm meteobridge W/m2
15:34 25 °C 18 °C 1017.5 hPa SE 1.4 km/h 6.4 km/h 65% 0 mm meteobridge W/m2
15:39 25 °C 17.5 °C 1017.2 hPa Calm   3.2 km/h 63% 0 mm meteobridge W/m2
15:44 25.1 °C 17.6 °C 1017.2 hPa Calm   6.4 km/h 63% 0 mm meteobridge W/m2
15:49 25.2 °C 17.9 °C 1017.2 hPa Calm     64% 0 mm meteobridge W/m2
15:54 25.1 °C 17.8 °C 1016.8 hPa Calm     64% 0 mm meteobridge W/m2
15:59 25.2 °C 17.7 °C 1016.8 hPa Calm   9.7 km/h 63% 0 mm meteobridge W/m2
16:04 25.3 °C 17.7 °C 1016.8 hPa SE 1.4 km/h 6.4 km/h 63% 0 mm meteobridge W/m2
16:09 25.3 °C 17.7 °C 1016.8 hPa Calm   9.7 km/h 63% 0 mm meteobridge W/m2
16:14 25.5 °C 17.4 °C 1016.8 hPa East 1.4 km/h 3.2 km/h 61% 0 mm meteobridge W/m2
16:19 25.6 °C 17.5 °C 1016.8 hPa East 1.4 km/h 1.6 km/h 61% 0 mm meteobridge W/m2
16:24 25.6 °C 17.8 °C 1016.8 hPa Calm   8 km/h 62% 0 mm meteobridge W/m2
16:29 25.6 °C 17.8 °C 1016.5 hPa Calm   3.2 km/h 62% 0 mm meteobridge W/m2
16:34 25.6 °C 18 °C 1016.8 hPa Calm   3.2 km/h 63% 0 mm meteobridge W/m2
16:39 25.6 °C 18 °C 1016.5 hPa Calm   8 km/h 63% 0 mm meteobridge W/m2
16:44 25.4 °C 17.1 °C 1016.8 hPa Calm   6.4 km/h 60% 0 mm meteobridge W/m2
16:49 25.2 °C 17.1 °C 1016.5 hPa ESE 3.2 km/h 6.4 km/h 61% 0 mm meteobridge W/m2
16:54 25.2 °C 17.4 °C 1016.5 hPa Calm   1.6 km/h 62% 0 mm meteobridge W/m2
16:59 25.3 °C 17.7 °C 1016.1 hPa Calm   1.6 km/h 63% 0 mm meteobridge W/m2
17:04 25.4 °C 17.6 °C 1016.1 hPa ESE 3.2 km/h 8 km/h 62% 0 mm meteobridge W/m2
17:09 25.4 °C 17.6 °C 1016.1 hPa ESE 1.4 km/h 1.6 km/h 62% 0 mm meteobridge W/m2
17:14 25.5 °C 17.7 °C 1016.1 hPa Calm     62% 0 mm meteobridge W/m2
17:19 25.6 °C 17.8 °C 1016.1 hPa ESE 1.4 km/h 3.2 km/h 62% 0 mm meteobridge W/m2
17:24 25.5 °C 17.4 °C 1016.1 hPa ESE 1.4 km/h 1.6 km/h 61% 0 mm meteobridge W/m2
17:29 25.4 °C 17.3 °C 1016.1 hPa Calm   3.2 km/h 61% 0 mm meteobridge W/m2
17:34 25.5 °C 17.7 °C 1016.1 hPa ESE 3.2 km/h 3.2 km/h 62% 0 mm meteobridge W/m2
17:39 25.6 °C 17.5 °C 1016.1 hPa Calm   6.4 km/h 61% 0 mm meteobridge W/m2
17:44 25.5 °C 17.9 °C 1016.1 hPa East 3.2 km/h 3.2 km/h 63% 0 mm meteobridge W/m2
17:49 25.3 °C 17.5 °C 1016.1 hPa Calm     62% 0 mm meteobridge W/m2
17:54 25.3 °C 17.7 °C 1016.1 hPa Calm   1.6 km/h 63% 0 mm meteobridge W/m2
17:59 25.3 °C 18 °C 1016.1 hPa Calm   8 km/h 64% 0 mm meteobridge W/m2
18:04 25.4 °C 18.3 °C 1016.1 hPa Calm   1.6 km/h 65% 0 mm meteobridge W/m2
18:09 25.4 °C 17.8 °C 1016.1 hPa Calm   8 km/h 63% 0 mm meteobridge W/m2
18:14 25.4 °C 17.8 °C 1016.1 hPa Calm   3.2 km/h 63% 0 mm meteobridge W/m2
18:19 25.3 °C 17.7 °C 1016.1 hPa Calm   3.2 km/h 63% 0 mm meteobridge W/m2
18:24 25.3 °C 17.7 °C 1016.1 hPa Calm     63% 0 mm meteobridge W/m2
18:29 25.3 °C 17.7 °C 1016.1 hPa Calm   3.2 km/h 63% 0 mm meteobridge W/m2
18:34 25.2 °C 17.7 °C 1016.1 hPa Calm   1.6 km/h 63% 0 mm meteobridge W/m2
18:39 25.2 °C 17.9 °C 1016.1 hPa Calm     64% 0 mm meteobridge W/m2
18:44 25.2 °C 17.9 °C 1016.1 hPa Calm   1.6 km/h 64% 0 mm meteobridge W/m2
18:49 25.2 °C 17.7 °C 1016.1 hPa ESE 3.2 km/h 8 km/h 63% 0 mm meteobridge W/m2
18:54 25.1 °C 18.1 °C 1016.1 hPa Calm     65% 0 mm meteobridge W/m2
18:59 25.1 °C 17.8 °C 1016.1 hPa Calm   3.2 km/h 64% 0 mm meteobridge W/m2
19:04 25.1 °C 17.8 °C 1016.1 hPa Calm     64% 0 mm meteobridge W/m2
19:09 25 °C 18.2 °C 1016.1 hPa Calm     66% 0 mm meteobridge W/m2
19:14 24.9 °C 17.9 °C 1016.1 hPa Calm   3.2 km/h 65% 0 mm meteobridge W/m2
19:19 24.8 °C 18 °C 1015.8 hPa Calm     66% 0 mm meteobridge W/m2
19:24 24.7 °C 17.9 °C 1015.8 hPa Calm   1.6 km/h 66% 0 mm meteobridge W/m2
19:29 24.6 °C 17.8 °C 1015.8 hPa Calm     66% 0 mm meteobridge W/m2
19:34 24.6 °C 17.8 °C 1015.8 hPa Calm   3.2 km/h 66% 0 mm meteobridge W/m2
19:38 24.4 °C 17.6 °C 1015.8 hPa Calm     66% 0 mm meteobridge W/m2
19:44 24.4 °C 17.6 °C 1015.8 hPa Calm     66% 0 mm meteobridge W/m2
19:49 24.3 °C 17.8 °C 1015.8 hPa Calm     67% 0 mm meteobridge W/m2
19:54 24.1 °C 17.6 °C 1015.8 hPa Calm     67% 0 mm meteobridge W/m2
19:59 24 °C 17.7 °C 1015.8 hPa Calm     68% 0 mm meteobridge W/m2
20:04 23.8 °C 17.8 °C 1016.1 hPa Calm     69% 0 mm meteobridge W/m2
20:09 23.7 °C 17.7 °C 1016.1 hPa Calm     69% 0 mm meteobridge W/m2
20:14 23.6 °C 17.8 °C 1016.1 hPa Calm     70% 0 mm meteobridge W/m2
20:19 23.5 °C 17.9 °C 1016.1 hPa Calm   1.6 km/h 71% 0 mm meteobridge W/m2
20:24 23.3 °C 17.7 °C 1016.1 hPa Calm     71% 0 mm meteobridge W/m2
20:29 23.2 °C 17.9 °C 1016.1 hPa Calm     72% 0 mm meteobridge W/m2
20:34 23.1 °C 18 °C 1016.5 hPa Calm   1.6 km/h 73% 0 mm meteobridge W/m2
20:39 23 °C 17.9 °C 1016.5 hPa Calm   1.6 km/h 73% 0 mm meteobridge W/m2
20:44 23 °C 17.9 °C 1016.5 hPa Calm     73% 0 mm meteobridge W/m2
20:49 22.9 °C 18 °C 1016.5 hPa Calm     74% 0 mm meteobridge W/m2
20:54 22.8 °C 18.1 °C 1016.5 hPa Calm     75% 0 mm meteobridge W/m2
20:59 22.6 °C 18.2 °C 1016.5 hPa Calm     76% 0 mm meteobridge W/m2
21:04 22.4 °C 18.2 °C 1016.5 hPa Calm     77% 0 mm meteobridge W/m2
21:09 22.2 °C 18.2 °C 1016.5 hPa Calm     78% 0 mm meteobridge W/m2
21:14 21.9 °C 18.1 °C 1016.8 hPa Calm     79% 0 mm meteobridge W/m2
21:19 21.7 °C 17.9 °C 1016.8 hPa Calm     79% 0 mm meteobridge W/m2
21:24 21.5 °C 17.9 °C 1016.8 hPa Calm     80% 0 mm meteobridge W/m2
21:29 21.4 °C 17.8 °C 1016.8 hPa Calm     80% 0 mm meteobridge W/m2
21:34 21.2 °C 17.8 °C 1016.8 hPa Calm     81% 0 mm meteobridge W/m2
21:39 21.1 °C 17.9 °C 1016.8 hPa Calm     82% 0 mm meteobridge W/m2
21:44 21 °C 17.8 °C 1016.8 hPa Calm     82% 0 mm meteobridge W/m2
21:49 20.9 °C 17.7 °C 1017.2 hPa Calm     82% 0 mm meteobridge W/m2
21:54 21.1 °C 17.9 °C 1017.2 hPa Calm     82% 0 mm meteobridge W/m2
21:59 21.1 °C 17.9 °C 1017.2 hPa Calm     82% 0 mm meteobridge W/m2
22:04 21.1 °C 17.9 °C 1017.5 hPa Calm     82% 0 mm meteobridge W/m2
22:09 21 °C 18 °C 1017.5 hPa Calm     83% 0 mm meteobridge W/m2
22:14 20.9 °C 17.7 °C 1017.5 hPa Calm     82% 0 mm meteobridge W/m2
22:19 21 °C 17.8 °C 1017.5 hPa Calm     82% 0 mm meteobridge W/m2
22:24 21 °C 18 °C 1017.5 hPa Calm     83% 0 mm meteobridge W/m2
22:29 20.9 °C 17.9 °C 1017.2 hPa Calm     83% 0 mm meteobridge W/m2
22:34 20.9 °C 17.9 °C 1017.2 hPa Calm     83% 0 mm meteobridge W/m2
22:39 20.9 °C 17.7 °C 1017.5 hPa Calm     82% 0 mm meteobridge W/m2
22:44 20.9 °C 17.9 °C 1017.2 hPa Calm     83% 0 mm meteobridge W/m2
22:49 20.9 °C 17.9 °C 1017.2 hPa Calm     83% 0 mm meteobridge W/m2
22:54 20.9 °C 17.9 °C 1017.2 hPa Calm     83% 0 mm meteobridge W/m2
22:59 20.8 °C 17.8 °C 1017.2 hPa Calm     83% 0 mm meteobridge W/m2
23:04 20.8 °C 17.8 °C 1017.2 hPa Calm     83% 0 mm meteobridge W/m2
23:09 20.8 °C 17.8 °C 1017.2 hPa Calm     83% 0 mm meteobridge W/m2
23:14 20.8 °C 17.8 °C 1017.2 hPa Calm     83% 0 mm meteobridge W/m2
23:19 20.7 °C 17.7 °C 1017.2 hPa Calm     83% 0 mm meteobridge W/m2
23:24 20.7 °C 17.9 °C 1017.2 hPa Calm     84% 0 mm meteobridge W/m2
23:29 20.6 °C 17.8 °C 1017.2 hPa Calm     84% 0 mm meteobridge W/m2
23:34 20.4 °C 17.6 °C 1017.2 hPa Calm     84% 0 mm meteobridge W/m2
23:39 20.4 °C 17.6 °C 1016.8 hPa Calm     84% 0 mm meteobridge W/m2
23:44 20.4 °C 17.6 °C 1016.8 hPa Calm     84% 0 mm meteobridge W/m2
23:49 20.6 °C 17.8 °C 1016.8 hPa Calm     84% 0 mm meteobridge W/m2
23:54 20.6 °C 17.8 °C 1016.8 hPa Calm     84% 0 mm meteobridge W/m2
23:59 20.7 °C 17.9 °C 1016.8 hPa Calm     84% 0 mm meteobridge W/m2
EllijayWeather
Compliments of Weather Underground - 2.5 mb